createdAt,value
2018-07-26T00:00:32.856Z,23.76
2018-07-26T00:03:02.287Z,23.73
2018-07-26T00:05:31.136Z,23.69
2018-07-26T00:08:00.680Z,23.66
2018-07-26T00:10:29.488Z,23.62
2018-07-26T00:12:58.283Z,23.58
2018-07-26T00:15:27.105Z,23.55
2018-07-26T00:17:55.888Z,23.51
2018-07-26T00:20:24.775Z,23.46
2018-07-26T00:22:53.586Z,23.42
2018-07-26T00:25:23.080Z,23.40
2018-07-26T00:27:51.853Z,23.36
2018-07-26T00:30:20.679Z,23.32
2018-07-26T00:32:50.245Z,23.25
2018-07-26T00:35:19.275Z,23.21
2018-07-26T00:37:48.743Z,23.15
2018-07-26T00:40:17.780Z,23.09
2018-07-26T00:42:47.628Z,22.99
2018-07-26T00:45:16.704Z,22.88
2018-07-26T00:47:45.908Z,22.82
2018-07-26T00:50:15.385Z,22.79
2018-07-26T00:52:44.199Z,22.78
2018-07-26T00:55:12.985Z,22.77
2018-07-26T00:57:42.302Z,22.76
2018-07-26T01:00:11.835Z,22.77
2018-07-26T01:02:41.677Z,22.78
2018-07-26T01:05:10.513Z,22.77
2018-07-26T01:07:40.095Z,22.77
2018-07-26T01:10:09.442Z,22.72
2018-07-26T01:12:38.168Z,22.71
2018-07-26T01:15:07.831Z,22.69
2018-07-26T01:17:36.616Z,22.63
2018-07-26T01:20:06.163Z,22.61
2018-07-26T01:22:35.446Z,22.56
2018-07-26T01:25:04.689Z,22.51
2018-07-26T01:27:33.481Z,22.45
2018-07-26T01:30:02.257Z,22.41
2018-07-26T01:32:31.619Z,22.38
2018-07-26T01:35:00.553Z,22.34
2018-07-26T01:37:29.911Z,22.30
2018-07-26T01:39:58.668Z,22.25
2018-07-26T01:42:27.455Z,22.21
2018-07-26T01:44:56.311Z,22.17
2018-07-26T01:47:25.248Z,22.14
2018-07-26T01:49:54.158Z,22.10
2018-07-26T01:52:22.999Z,22.04
2018-07-26T01:54:51.751Z,21.94
2018-07-26T01:57:21.039Z,21.91
2018-07-26T01:59:50.668Z,21.86
2018-07-26T02:02:20.971Z,21.79
2018-07-26T02:04:49.682Z,21.74
2018-07-26T02:07:19.607Z,21.69
2018-07-26T02:09:50.067Z,21.64
2018-07-26T02:12:19.164Z,21.61
2018-07-26T02:14:49.375Z,21.59
2018-07-26T02:17:18.409Z,21.60
2018-07-26T02:19:47.592Z,21.63
2018-07-26T02:22:17.933Z,21.64
2018-07-26T02:24:47.930Z,21.65
2018-07-26T02:27:17.403Z,21.66
2018-07-26T02:29:46.660Z,21.65
2018-07-26T02:32:16.879Z,21.64
2018-07-26T02:34:46.036Z,21.63
2018-07-26T02:37:17.142Z,21.62
2018-07-26T02:39:46.218Z,21.60
2018-07-26T02:42:15.019Z,21.58
2018-07-26T02:44:43.854Z,21.57
2018-07-26T02:47:12.703Z,21.56
2018-07-26T02:49:41.671Z,21.54
2018-07-26T02:52:10.460Z,21.52
2018-07-26T02:54:39.216Z,21.47
2018-07-26T02:57:08.599Z,21.47
2018-07-26T02:59:38.092Z,21.62
2018-07-26T03:02:07.790Z,21.83
2018-07-26T03:04:36.553Z,22.06
2018-07-26T03:07:06.271Z,22.29
2018-07-26T03:09:35.704Z,22.54
2018-07-26T03:12:04.462Z,22.77
2018-07-26T03:14:39.381Z,23.00
2018-07-26T03:17:08.169Z,23.26
2018-07-26T03:19:36.975Z,23.50
2018-07-26T03:22:06.621Z,23.78
2018-07-26T03:24:36.139Z,24.00
2018-07-26T03:27:04.927Z,24.20
2018-07-26T03:29:33.782Z,24.41
2018-07-26T03:32:03.209Z,24.70
2018-07-26T03:34:32.021Z,25.03
2018-07-26T03:37:00.839Z,25.38
2018-07-26T03:39:30.140Z,25.67
2018-07-26T03:41:58.921Z,25.91
2018-07-26T03:44:27.736Z,26.18
2018-07-26T03:46:56.595Z,26.34
2018-07-26T03:49:25.392Z,26.43
2018-07-26T03:51:54.302Z,26.50
2018-07-26T03:54:23.172Z,26.60
2018-07-26T03:56:52.880Z,26.74
2018-07-26T03:59:22.489Z,26.87
2018-07-26T04:01:51.856Z,27.02
2018-07-26T04:04:20.648Z,27.11
2018-07-26T04:06:50.053Z,27.32
2018-07-26T04:09:19.491Z,27.45
2018-07-26T04:11:48.543Z,27.52
2018-07-26T04:14:18.330Z,27.35
2018-07-26T04:16:47.347Z,27.06
2018-07-26T04:19:16.613Z,26.73
2018-07-26T04:21:46.485Z,26.40
2018-07-26T04:24:17.046Z,26.12
2018-07-26T04:26:46.846Z,25.95
2018-07-26T04:29:15.612Z,25.79
2018-07-26T04:31:45.430Z,25.67
2018-07-26T04:34:14.399Z,25.53
2018-07-26T04:36:43.177Z,25.43
2018-07-26T04:39:12.543Z,25.27
2018-07-26T04:41:41.412Z,25.17
2018-07-26T04:44:10.407Z,25.11
2018-07-26T04:46:39.293Z,25.08
2018-07-26T04:49:08.105Z,25.02
2018-07-26T04:51:36.991Z,24.95
2018-07-26T04:54:05.841Z,24.89
2018-07-26T04:56:35.079Z,24.92
2018-07-26T04:59:04.792Z,24.89
2018-07-26T05:01:34.270Z,24.91
2018-07-26T05:04:03.033Z,24.92
2018-07-26T05:06:31.838Z,24.89
2018-07-26T05:09:01.336Z,24.86
2018-07-26T05:11:30.096Z,24.84
2018-07-26T05:13:58.851Z,24.86
2018-07-26T05:16:28.970Z,24.92
2018-07-26T05:18:57.750Z,24.90
2018-07-26T05:21:26.583Z,24.97
2018-07-26T05:23:55.881Z,24.89
2018-07-26T05:26:25.031Z,24.90
2018-07-26T05:28:53.798Z,24.85
2018-07-26T05:31:23.504Z,24.84
2018-07-26T05:33:52.228Z,24.83
2018-07-26T05:36:21.274Z,24.81
2018-07-26T05:38:51.115Z,24.90
2018-07-26T05:41:20.496Z,24.95
2018-07-26T05:43:49.517Z,24.96
2018-07-26T05:46:19.195Z,24.98
2018-07-26T05:48:48.424Z,25.09
2018-07-26T05:51:18.272Z,25.12
2018-07-26T05:53:47.327Z,25.24
2018-07-26T05:56:17.829Z,25.31
2018-07-26T05:58:47.835Z,25.33
2018-07-26T06:01:18.092Z,25.35
2018-07-26T06:03:48.304Z,25.41
2018-07-26T06:06:18.168Z,25.47
2018-07-26T06:08:48.589Z,25.61
2018-07-26T06:11:17.894Z,25.70
2018-07-26T06:13:47.104Z,25.78
2018-07-26T06:16:17.219Z,25.89
2018-07-26T06:18:46.204Z,25.97
2018-07-26T06:21:14.959Z,26.02
2018-07-26T06:23:44.584Z,26.15
2018-07-26T06:26:14.258Z,26.26
2018-07-26T06:28:43.062Z,26.33
2018-07-26T06:31:12.449Z,26.35
2018-07-26T06:33:41.270Z,26.39
2018-07-26T06:36:10.241Z,26.44
2018-07-26T06:38:39.580Z,26.57
2018-07-26T06:41:08.395Z,26.70
2018-07-26T06:43:37.183Z,26.83
2018-07-26T06:46:06.025Z,26.91
2018-07-26T06:48:34.835Z,27.06
2018-07-26T06:51:03.710Z,27.13
2018-07-26T06:53:32.505Z,27.15
2018-07-26T06:56:01.960Z,27.06
2018-07-26T06:58:31.376Z,27.13
2018-07-26T07:01:00.211Z,27.21
2018-07-26T07:03:29.753Z,27.22
2018-07-26T07:05:58.515Z,27.24
2018-07-26T07:08:28.277Z,27.38
2018-07-26T07:10:57.415Z,27.43
2018-07-26T07:13:26.236Z,27.43
2018-07-26T07:15:55.796Z,27.45
2018-07-26T07:18:24.583Z,27.46
2018-07-26T07:20:53.390Z,27.53
2018-07-26T07:23:23.063Z,27.63
2018-07-26T07:25:52.704Z,27.80
2018-07-26T07:28:21.515Z,27.82
2018-07-26T07:30:51.123Z,27.76
2018-07-26T07:33:20.049Z,27.80
2018-07-26T07:35:49.003Z,27.91
2018-07-26T07:38:18.243Z,28.04
2018-07-26T07:40:48.022Z,28.09
2018-07-26T07:43:17.042Z,28.10
2018-07-26T07:45:45.978Z,28.13
2018-07-26T07:48:14.845Z,28.16
2018-07-26T07:50:43.684Z,28.16
2018-07-26T07:53:12.935Z,28.22
2018-07-26T07:55:42.629Z,28.17
2018-07-26T07:58:11.416Z,28.21
2018-07-26T08:00:40.899Z,28.22
2018-07-26T08:03:10.466Z,28.26
2018-07-26T08:05:39.206Z,28.28
2018-07-26T08:08:09.356Z,28.35
2018-07-26T08:10:38.126Z,28.36
2018-07-26T08:13:07.126Z,28.35
2018-07-26T08:15:37.006Z,28.42
2018-07-26T08:18:06.443Z,28.47
2018-07-26T08:20:35.224Z,28.57
2018-07-26T08:23:04.855Z,28.59
2018-07-26T08:25:34.158Z,28.67
2018-07-26T08:28:02.954Z,28.79
2018-07-26T08:30:31.747Z,28.92
2018-07-26T08:33:01.188Z,29.13
2018-07-26T08:35:30.067Z,29.28
2018-07-26T08:37:58.863Z,29.30
2018-07-26T08:40:28.640Z,29.34
2018-07-26T08:42:57.446Z,29.37
2018-07-26T08:45:26.295Z,29.38
2018-07-26T08:47:55.147Z,29.33
2018-07-26T08:50:23.923Z,29.33
2018-07-26T08:52:52.764Z,29.45
2018-07-26T08:55:22.256Z,29.61
2018-07-26T08:57:51.019Z,29.63
2018-07-26T09:00:20.775Z,29.76
2018-07-26T09:02:50.612Z,29.83
2018-07-26T09:05:19.623Z,29.85
2018-07-26T09:07:49.502Z,29.89
2018-07-26T09:10:19.076Z,29.88
2018-07-26T09:12:48.259Z,29.95
2018-07-26T09:15:17.934Z,29.92
2018-07-26T09:17:47.148Z,29.94
2018-07-26T09:20:16.121Z,30.01
2018-07-26T09:22:45.500Z,30.04
2018-07-26T09:25:14.779Z,30.14
2018-07-26T09:27:43.538Z,30.28
2018-07-26T09:30:12.664Z,30.32
2018-07-26T09:32:43.008Z,30.36
2018-07-26T09:35:11.779Z,30.36
2018-07-26T09:37:40.567Z,30.36
2018-07-26T09:40:10.677Z,30.42
2018-07-26T09:42:39.440Z,30.43
2018-07-26T09:45:08.291Z,30.51
2018-07-26T09:47:37.176Z,30.65
2018-07-26T09:50:06.057Z,30.64
2018-07-26T09:52:35.344Z,30.72
2018-07-26T09:55:04.303Z,30.72
2018-07-26T09:57:33.685Z,30.83
2018-07-26T10:00:03.123Z,30.98
2018-07-26T10:02:32.519Z,31.04
2018-07-26T10:05:01.227Z,31.05
2018-07-26T10:07:30.476Z,31.13
2018-07-26T10:09:59.855Z,31.12
2018-07-26T10:12:28.625Z,31.12
2018-07-26T10:14:58.077Z,31.13
2018-07-26T10:17:26.811Z,31.25
2018-07-26T10:19:55.584Z,31.35
2018-07-26T10:22:25.123Z,31.50
2018-07-26T10:24:55.108Z,31.59
2018-07-26T10:27:23.881Z,31.53
2018-07-26T10:29:52.667Z,31.43
2018-07-26T10:32:22.019Z,31.32
2018-07-26T10:34:50.850Z,31.28
2018-07-26T10:37:19.646Z,31.33
2018-07-26T10:39:49.689Z,31.30
2018-07-26T10:42:18.811Z,31.36
2018-07-26T10:44:47.733Z,31.42
2018-07-26T10:47:16.891Z,31.38
2018-07-26T10:49:45.720Z,31.41
2018-07-26T10:52:14.987Z,31.44
2018-07-26T10:54:43.859Z,31.43
2018-07-26T10:57:13.215Z,31.51
2018-07-26T10:59:42.802Z,31.56
2018-07-26T11:02:12.988Z,31.61
2018-07-26T11:04:41.762Z,31.67
2018-07-26T11:07:10.702Z,31.73
2018-07-26T11:09:40.309Z,31.85
2018-07-26T11:12:09.099Z,31.95
2018-07-26T11:14:38.366Z,31.97
2018-07-26T11:17:07.158Z,31.95
2018-07-26T11:19:35.998Z,32.06
2018-07-26T11:22:05.631Z,32.27
2018-07-26T11:24:35.122Z,32.32
2018-07-26T11:27:03.970Z,32.40
2018-07-26T11:29:32.820Z,32.52
2018-07-26T11:32:02.633Z,32.54
2018-07-26T11:34:31.402Z,32.45
2018-07-26T11:37:30.789Z,32.47
2018-07-26T11:40:00.153Z,32.42
2018-07-26T11:42:28.936Z,32.44
2018-07-26T11:44:57.838Z,32.42
2018-07-26T11:47:26.663Z,32.35
2018-07-26T11:49:55.404Z,32.36
2018-07-26T11:52:24.328Z,32.31
2018-07-26T11:54:53.359Z,32.34
2018-07-26T11:57:22.775Z,32.43
2018-07-26T11:59:52.368Z,32.44
2018-07-26T12:02:21.768Z,32.47
2018-07-26T12:04:50.821Z,32.50
2018-07-26T12:07:19.682Z,32.55
2018-07-26T12:09:49.470Z,32.65
2018-07-26T12:12:18.937Z,32.76
2018-07-26T12:14:48.402Z,32.82
2018-07-26T12:17:17.426Z,32.92
2018-07-26T12:19:46.274Z,33.01
2018-07-26T12:22:15.712Z,33.15
2018-07-26T12:24:45.118Z,33.16
2018-07-26T12:27:13.934Z,33.07
2018-07-26T12:29:42.668Z,33.05
2018-07-26T12:32:12.169Z,33.04
2018-07-26T12:34:40.952Z,33.08
2018-07-26T12:37:09.719Z,33.09
2018-07-26T12:39:39.072Z,33.07
2018-07-26T12:42:07.978Z,33.13
2018-07-26T12:44:36.748Z,33.16
2018-07-26T12:47:05.877Z,33.22
2018-07-26T12:49:34.888Z,33.26
2018-07-26T12:52:03.810Z,33.30
2018-07-26T12:54:32.648Z,33.30
2018-07-26T12:57:02.405Z,33.31
2018-07-26T12:59:32.068Z,33.30
2018-07-26T13:02:01.564Z,33.34
2018-07-26T13:04:30.377Z,33.34
2018-07-26T13:06:59.169Z,33.34
2018-07-26T13:09:28.813Z,33.39
2018-07-26T13:11:57.622Z,33.42
2018-07-26T13:14:27.275Z,33.48
2018-07-26T13:16:56.076Z,33.54
2018-07-26T13:19:24.891Z,33.57
2018-07-26T13:21:54.338Z,33.59
2018-07-26T13:24:23.789Z,33.57
2018-07-26T13:26:52.542Z,33.54
2018-07-26T13:29:21.780Z,33.63
2018-07-26T13:31:51.387Z,33.68
2018-07-26T13:34:20.354Z,33.71
2018-07-26T13:36:49.360Z,33.80
2018-07-26T13:39:19.033Z,33.81
2018-07-26T13:41:48.108Z,33.81
2018-07-26T13:44:17.625Z,33.88
2018-07-26T13:46:46.533Z,33.94
2018-07-26T13:49:15.352Z,33.94
2018-07-26T13:51:44.346Z,34.01
2018-07-26T13:54:13.129Z,34.13
2018-07-26T13:56:42.607Z,34.22
2018-07-26T13:59:12.036Z,34.33
2018-07-26T14:01:41.412Z,34.39
2018-07-26T14:04:10.337Z,34.38
2018-07-26T14:06:39.071Z,34.37
2018-07-26T14:09:10.365Z,34.30
2018-07-26T14:11:39.175Z,34.27
2018-07-26T14:14:08.219Z,34.28
2018-07-26T14:16:38.170Z,34.38
2018-07-26T14:19:07.591Z,34.40
2018-07-26T14:21:36.505Z,34.36
2018-07-26T14:24:11.052Z,34.34
2018-07-26T14:26:39.842Z,34.44
2018-07-26T14:29:08.629Z,34.48
2018-07-26T14:31:38.337Z,34.46
2018-07-26T14:34:07.141Z,34.46
2018-07-26T14:36:35.958Z,34.49
2018-07-26T14:39:08.286Z,34.49
2018-07-26T14:41:37.159Z,34.47
2018-07-26T14:44:06.068Z,34.41
2018-07-26T14:46:34.863Z,34.43
2018-07-26T14:49:04.697Z,34.40
2018-07-26T14:51:33.871Z,34.38
2018-07-26T14:54:02.751Z,34.33
2018-07-26T14:56:32.137Z,34.34
2018-07-26T14:59:01.665Z,34.40
2018-07-26T15:01:31.075Z,34.44
2018-07-26T15:03:59.821Z,34.48
2018-07-26T15:06:28.584Z,34.48
2018-07-26T15:08:58.014Z,34.45
2018-07-26T15:11:26.803Z,34.39
2018-07-26T15:13:55.506Z,34.41
2018-07-26T15:16:25.091Z,34.34
2018-07-26T15:18:53.866Z,34.29
2018-07-26T15:21:22.594Z,34.15
2018-07-26T15:23:52.359Z,34.04
2018-07-26T15:26:21.168Z,34.07
2018-07-26T15:28:50.269Z,34.00
2018-07-26T15:31:19.942Z,33.98
2018-07-26T15:33:49.558Z,34.06
2018-07-26T15:36:18.607Z,34.39
2018-07-26T15:38:48.482Z,34.85
2018-07-26T15:41:17.510Z,35.36
2018-07-26T15:43:46.322Z,35.92
2018-07-26T15:46:15.187Z,36.33
2018-07-26T15:48:43.969Z,36.79
2018-07-26T15:51:13.025Z,37.14
2018-07-26T15:53:42.085Z,37.56
2018-07-26T15:56:12.073Z,37.94
2018-07-26T15:58:41.705Z,38.31
2018-07-26T16:01:11.483Z,38.42
2018-07-26T16:03:40.846Z,38.57
2018-07-26T16:06:09.580Z,38.88
2018-07-26T16:08:38.954Z,39.08
2018-07-26T16:11:07.727Z,39.22
2018-07-26T16:13:36.508Z,39.49
2018-07-26T16:16:06.031Z,39.82
2018-07-26T16:18:34.803Z,40.12
2018-07-26T16:21:03.594Z,40.35
2018-07-26T16:23:33.097Z,40.24
2018-07-26T16:26:02.573Z,40.20
2018-07-26T16:28:31.346Z,40.25
2018-07-26T16:31:00.746Z,40.45
2018-07-26T16:33:29.511Z,40.44
2018-07-26T16:35:58.523Z,40.53
2018-07-26T16:38:27.491Z,40.46
2018-07-26T16:40:56.952Z,40.61
2018-07-26T16:43:25.691Z,40.51
2018-07-26T16:45:54.480Z,40.56
2018-07-26T16:48:23.259Z,40.63
2018-07-26T16:50:52.491Z,40.32
2018-07-26T16:53:21.428Z,39.89
2018-07-26T16:55:51.132Z,39.61
2018-07-26T16:58:21.442Z,39.57
2018-07-26T17:00:50.458Z,39.64
2018-07-26T17:03:20.192Z,39.63
2018-07-26T17:05:49.200Z,39.75
2018-07-26T17:08:19.055Z,39.70
2018-07-26T17:10:47.930Z,39.82
2018-07-26T17:13:16.756Z,39.90
2018-07-26T17:15:46.388Z,39.93
2018-07-26T17:18:15.279Z,39.98
2018-07-26T17:20:44.171Z,39.87
2018-07-26T17:23:13.783Z,39.84
2018-07-26T17:25:43.065Z,39.82
2018-07-26T17:28:12.086Z,39.94
2018-07-26T17:30:40.824Z,40.03
2018-07-26T17:33:10.142Z,40.01
2018-07-26T17:35:38.960Z,40.03
2018-07-26T17:38:07.683Z,40.01
2018-07-26T17:40:37.176Z,40.13
2018-07-26T17:43:05.903Z,40.19
2018-07-26T17:45:34.726Z,40.22
2018-07-26T17:48:03.519Z,39.99
2018-07-26T17:50:32.255Z,39.78
2018-07-26T17:53:01.352Z,39.58
2018-07-26T17:55:31.026Z,39.46
2018-07-26T17:57:59.800Z,39.34
2018-07-26T18:00:29.380Z,39.28
2018-07-26T18:02:58.987Z,39.12
2018-07-26T18:05:27.710Z,38.91
2018-07-26T18:07:57.152Z,38.75
2018-07-26T18:10:25.863Z,38.72
2018-07-26T18:12:54.631Z,38.76
2018-07-26T18:15:24.056Z,38.66
2018-07-26T18:17:52.784Z,38.59
2018-07-26T18:20:21.524Z,38.51
2018-07-26T18:22:51.327Z,38.37
2018-07-26T18:25:20.842Z,38.04
2018-07-26T18:27:49.923Z,37.78
2018-07-26T18:30:19.847Z,37.40
2018-07-26T18:32:49.949Z,36.68
2018-07-26T18:35:20.890Z,36.11
2018-07-26T18:37:49.983Z,35.56
2018-07-26T18:40:19.648Z,35.08
2018-07-26T18:42:49.416Z,34.57
2018-07-26T18:45:18.437Z,34.20
2018-07-26T18:47:47.350Z,33.86
2018-07-26T18:50:16.150Z,33.52
2018-07-26T18:52:45.030Z,33.23
2018-07-26T18:55:14.163Z,32.92
2018-07-26T18:57:43.974Z,32.61
2018-07-26T19:00:14.017Z,32.33
2018-07-26T19:02:43.820Z,32.13
2018-07-26T19:05:12.560Z,31.94
2018-07-26T19:07:41.319Z,31.80
2018-07-26T19:10:11.961Z,31.67
2018-07-26T19:12:40.831Z,31.51
2018-07-26T19:15:11.844Z,31.36
2018-07-26T19:17:40.620Z,31.21
2018-07-26T19:20:10.755Z,31.11
2018-07-26T19:22:40.126Z,30.96
2018-07-26T19:25:10.685Z,30.81
2018-07-26T19:27:39.646Z,30.68
2018-07-26T19:30:11.244Z,30.56
2018-07-26T19:32:40.704Z,30.42
2018-07-26T19:35:09.467Z,30.31
2018-07-26T19:37:38.277Z,30.21
2018-07-26T19:40:09.149Z,30.08
2018-07-26T19:42:38.671Z,30.00
2018-07-26T19:45:08.303Z,29.89
2018-07-26T19:47:37.401Z,29.77
2018-07-26T19:50:06.289Z,29.67
2018-07-26T19:52:35.392Z,29.58
2018-07-26T19:55:04.439Z,29.48
2018-07-26T19:57:33.990Z,29.37
2018-07-26T20:00:03.554Z,29.28
2018-07-26T20:02:32.853Z,29.15
2018-07-26T20:05:01.906Z,29.00
2018-07-26T20:07:30.717Z,28.87
2018-07-26T20:10:00.373Z,28.80
2018-07-26T20:12:29.255Z,28.71
2018-07-26T20:14:58.860Z,28.64
2018-07-26T20:17:27.685Z,28.57
2018-07-26T20:19:56.444Z,28.50
2018-07-26T20:22:26.016Z,28.43
2018-07-26T20:24:55.354Z,28.38
2018-07-26T20:27:24.163Z,28.31
2018-07-26T20:29:52.911Z,28.26
2018-07-26T20:32:22.098Z,28.19
2018-07-26T20:34:51.053Z,28.15
2018-07-26T20:37:20.221Z,28.10
2018-07-26T20:39:50.186Z,28.05
2018-07-26T20:42:19.251Z,28.00
2018-07-26T20:44:48.107Z,27.95
2018-07-26T20:47:16.929Z,27.89
2018-07-26T20:49:45.731Z,27.80
2018-07-26T20:52:14.663Z,27.75
2018-07-26T20:54:43.447Z,27.69
2018-07-26T20:57:12.974Z,27.61
2018-07-26T20:59:42.639Z,27.55
2018-07-26T21:02:12.030Z,27.48
2018-07-26T21:04:40.848Z,27.43
2018-07-26T21:07:09.710Z,27.41
2018-07-26T21:09:39.020Z,27.32
2018-07-26T21:12:07.858Z,27.27
2018-07-26T21:14:37.132Z,27.19
2018-07-26T21:17:06.051Z,27.14
2018-07-26T21:19:34.800Z,27.09
2018-07-26T21:22:04.591Z,27.07
2018-07-26T21:24:34.085Z,26.99
2018-07-26T21:27:02.950Z,26.93
2018-07-26T21:29:31.712Z,26.86
2018-07-26T21:32:01.661Z,26.79
2018-07-26T21:34:30.495Z,26.72
2018-07-26T21:36:59.307Z,26.67
2018-07-26T21:39:28.564Z,26.59
2018-07-26T21:41:57.657Z,26.51
2018-07-26T21:44:26.451Z,26.44
2018-07-26T21:46:55.283Z,26.37
2018-07-26T21:49:24.341Z,26.32
2018-07-26T21:51:53.365Z,26.23
2018-07-26T21:54:22.245Z,26.21
2018-07-26T21:56:51.960Z,26.16
2018-07-26T21:59:21.694Z,26.11
2018-07-26T22:01:51.897Z,26.05
2018-07-26T22:04:20.891Z,25.99
2018-07-26T22:06:52.470Z,25.94
2018-07-26T22:09:21.692Z,25.88
2018-07-26T22:11:50.764Z,25.81
2018-07-26T22:14:20.442Z,25.78
2018-07-26T22:16:50.123Z,25.72
2018-07-26T22:19:19.212Z,25.68
2018-07-26T22:21:49.359Z,25.63
2018-07-26T22:24:18.878Z,25.57
2018-07-26T22:26:47.706Z,25.51
2018-07-26T22:29:16.516Z,25.43
2018-07-26T22:31:46.028Z,25.38
2018-07-26T22:34:14.811Z,25.29
2018-07-26T22:36:43.620Z,25.24
2018-07-26T22:39:13.026Z,25.17
2018-07-26T22:41:42.153Z,25.09
2018-07-26T22:44:10.937Z,25.01
2018-07-26T22:46:39.751Z,24.97
2018-07-26T22:49:08.639Z,24.94
2018-07-26T22:51:38.656Z,24.91
2018-07-26T22:54:07.617Z,24.88
2018-07-26T22:56:37.109Z,24.85
2018-07-26T22:59:07.350Z,24.81
2018-07-26T23:01:36.754Z,24.75
2018-07-26T23:04:05.627Z,24.70
2018-07-26T23:06:34.381Z,24.62
2018-07-26T23:09:04.192Z,24.54
2018-07-26T23:11:33.012Z,24.47
2018-07-26T23:14:01.823Z,24.41
2018-07-26T23:16:31.186Z,24.33
2018-07-26T23:18:59.938Z,24.24
2018-07-26T23:21:28.726Z,24.20
2018-07-26T23:23:58.663Z,24.15
2018-07-26T23:26:28.520Z,24.11
2018-07-26T23:28:57.323Z,24.06
2018-07-26T23:31:26.690Z,24.06
2018-07-26T23:33:55.582Z,24.04
2018-07-26T23:36:24.395Z,23.99
2018-07-26T23:38:54.128Z,23.97
2018-07-26T23:41:22.943Z,23.95
2018-07-26T23:43:51.780Z,23.93
2018-07-26T23:46:21.237Z,23.92
2018-07-26T23:48:50.486Z,23.89
2018-07-26T23:51:19.718Z,23.86
2018-07-26T23:53:48.862Z,23.83
2018-07-26T23:56:19.339Z,23.79
2018-07-26T23:58:49.315Z,23.75
